Time;durP1;ratioP1;P1;durP2;ratioP2;P2;SDS_P1;SDS_P2;PMS_P1;PMS_P2;Temp;Humidity;BMP_temperature;BMP_pressure;BME280_temperature;BME280_humidity;BME280_pressure;Samples;Min_cycle;Max_cycle;Signal;HPM_P1;HPM_P2
2023/06/24 00:02:16;;;;;;;10.50;7.80;;;14.80;99.90;;;;;;5024364;28;20935;-57
2023/06/24 00:04:42;;;;;;;10.83;8.43;;;14.80;99.90;;;;;;5019987;28;20184;-59
2023/06/24 00:07:08;;;;;;;22.00;8.27;;;14.80;99.90;;;;;;5024257;28;20211;-60
2023/06/24 00:09:33;;;;;;;15.10;8.10;;;14.70;99.90;;;;;;5025335;28;20186;-58
2023/06/24 00:11:59;;;;;;;11.73;7.43;;;14.70;99.90;;;;;;5024052;28;20229;-60
2023/06/24 00:14:26;;;;;;;10.00;7.00;;;14.70;99.90;;;;;;5026733;28;20608;-58
2023/06/24 00:16:53;;;;;;;11.67;7.67;;;14.60;99.90;;;;;;5022482;28;20538;-58
2023/06/24 00:19:23;;;;;;;8.07;6.80;;;14.60;99.90;;;;;;5022866;28;20454;-59
2023/06/24 00:21:52;;;;;;;8.17;6.90;;;14.60;99.90;;;;;;5025616;28;20437;-59
2023/06/24 00:24:20;;;;;;;8.83;6.70;;;14.50;99.90;;;;;;5028553;28;20432;-57
2023/06/24 00:26:48;;;;;;;8.70;6.83;;;14.50;99.90;;;;;;5029372;28;20439;-59
2023/06/24 00:29:15;;;;;;;16.37;7.90;;;14.50;99.90;;;;;;5023348;28;20423;-59
2023/06/24 00:31:41;;;;;;;9.80;7.30;;;14.50;99.90;;;;;;5025863;28;20501;-60
2023/06/24 00:34:07;;;;;;;9.20;7.43;;;14.40;99.90;;;;;;5024319;28;22179;-59
2023/06/24 00:36:32;;;;;;;11.53;7.60;;;14.40;99.90;;;;;;5026670;28;20426;-58
2023/06/24 00:39:03;;;;;;;10.40;6.80;;;14.40;99.90;;;;;;5027554;28;20192;-58
2023/06/24 00:41:32;;;;;;;9.27;7.00;;;14.40;99.90;;;;;;5025203;28;20860;-60
2023/06/24 00:43:58;;;;;;;10.50;7.47;;;14.30;99.90;;;;;;5019513;28;20488;-60
2023/06/24 00:46:25;;;;;;;10.60;7.37;;;14.30;99.90;;;;;;5025402;28;20938;-60
2023/06/24 00:48:57;;;;;;;13.80;7.10;;;14.20;99.90;;;;;;5025240;28;20762;-60
2023/06/24 00:51:34;;;;;;;10.43;7.70;;;14.20;99.90;;;;;;5024908;28;20425;-58
2023/06/24 00:54:00;;;;;;;8.70;6.93;;;14.10;99.90;;;;;;5027533;28;20520;-58
2023/06/24 00:56:33;;;;;;;11.77;8.00;;;14.10;99.90;;;;;;5024623;28;21068;-58
2023/06/24 00:59:01;;;;;;;10.67;7.87;;;14.10;99.90;;;;;;5026673;28;20410;-59
2023/06/24 01:01:31;;;;;;;11.50;8.33;;;14.10;99.90;;;;;;5028223;28;21244;-60
2023/06/24 01:03:57;;;;;;;10.60;7.53;;;14.10;99.90;;;;;;5021016;28;20422;-60
2023/06/24 01:06:23;;;;;;;9.23;7.57;;;14.00;99.90;;;;;;5021317;28;20419;-63
2023/06/24 01:08:50;;;;;;;9.97;7.53;;;14.00;99.90;;;;;;5021437;28;20434;-58
2023/06/24 01:11:16;;;;;;;10.60;7.80;;;14.00;99.90;;;;;;5023214;28;20199;-57
2023/06/24 01:13:43;;;;;;;10.50;6.90;;;13.90;99.90;;;;;;5026322;28;20423;-62
2023/06/24 01:16:13;;;;;;;9.53;7.33;;;13.90;99.90;;;;;;5026904;28;20954;-59
2023/06/24 01:18:46;;;;;;;10.83;7.90;;;13.80;99.90;;;;;;5027767;28;20938;-59
2023/06/24 01:21:15;;;;;;;12.97;8.27;;;13.80;99.90;;;;;;5020149;28;20434;-59
2023/06/24 01:23:49;;;;;;;11.30;8.20;;;13.80;99.90;;;;;;5017605;28;20410;-59
2023/06/24 01:26:41;;;;;;;8.10;6.97;;;13.80;99.90;;;;;;5024658;28;20414;-59
2023/06/24 01:29:29;;;;;;;10.50;7.63;;;13.70;99.90;;;;;;5025034;28;20808;-59
2023/06/24 01:32:15;;;;;;;7.80;6.60;;;13.70;99.90;;;;;;5025180;28;20418;-60
2023/06/24 01:34:57;;;;;;;12.37;7.30;;;13.60;99.90;;;;;;5021669;28;20421;-58
2023/06/24 01:37:35;;;;;;;11.70;7.37;;;13.60;99.90;;;;;;5017178;28;20461;-59
2023/06/24 01:40:00;;;;;;;11.40;7.17;;;13.60;99.90;;;;;;5023499;28;20462;-58
2023/06/24 01:42:30;;;;;;;12.33;7.73;;;13.50;99.90;;;;;;5023240;28;20840;-60
2023/06/24 01:44:58;;;;;;;10.07;7.40;;;13.60;99.90;;;;;;5024327;28;20179;-61
2023/06/24 01:47:26;;;;;;;10.03;7.13;;;13.50;99.90;;;;;;5024287;28;20455;-60
2023/06/24 01:49:54;;;;;;;10.40;6.60;;;13.50;99.90;;;;;;5017576;28;20965;-60
2023/06/24 01:52:23;;;;;;;10.17;6.70;;;13.50;99.90;;;;;;5022556;28;20430;-59
2023/06/24 01:54:49;;;;;;;9.53;6.90;;;13.50;99.90;;;;;;5024666;28;20430;-60
2023/06/24 01:57:17;;;;;;;12.77;7.10;;;13.40;99.90;;;;;;5027202;28;20442;-59
2023/06/24 01:59:45;;;;;;;9.70;7.67;;;13.40;99.90;;;;;;5028348;28;20462;-59
2023/06/24 02:02:13;;;;;;;10.33;7.40;;;13.40;99.90;;;;;;5022226;28;20992;-58
2023/06/24 02:04:39;;;;;;;10.47;6.40;;;13.40;99.90;;;;;;5031353;28;20418;-59
2023/06/24 02:07:06;;;;;;;9.60;6.77;;;13.40;99.90;;;;;;5027832;28;20439;-59
2023/06/24 02:09:33;;;;;;;10.17;7.13;;;13.40;99.90;;;;;;5015868;28;20492;-59
2023/06/24 02:12:02;;;;;;;10.13;6.83;;;13.40;99.90;;;;;;5019001;28;20438;-59
2023/06/24 02:14:30;;;;;;;9.50;7.33;;;13.40;99.90;;;;;;5026801;28;20418;-59
2023/06/24 02:17:00;;;;;;;8.73;6.70;;;13.30;99.90;;;;;;5025763;28;20485;-59
2023/06/24 02:19:29;;;;;;;9.03;7.00;;;13.30;99.90;;;;;;5023481;28;20501;-60
2023/06/24 02:21:59;;;;;;;13.20;7.20;;;13.30;99.90;;;;;;5024473;28;20427;-59
2023/06/24 02:24:26;;;;;;;10.03;6.60;;;13.20;99.90;;;;;;5021736;28;20525;-60
2023/06/24 02:26:53;;;;;;;10.57;7.60;;;13.20;99.90;;;;;;5019990;28;20889;-59
2023/06/24 02:29:21;;;;;;;13.70;8.07;;;13.20;99.90;;;;;;5021326;28;21009;-58
2023/06/24 02:31:47;;;;;;;9.57;7.10;;;13.20;99.90;;;;;;5021710;28;20505;-56
2023/06/24 02:34:12;;;;;;;9.67;6.63;;;13.10;99.90;;;;;;5024930;28;20447;-60
2023/06/24 02:36:39;;;;;;;7.83;6.50;;;13.10;99.90;;;;;;5020945;28;20176;-60
2023/06/24 02:39:04;;;;;;;8.70;6.93;;;13.10;99.90;;;;;;5018899;28;20234;-60
2023/06/24 02:41:30;;;;;;;12.60;8.10;;;13.00;99.90;;;;;;5017148;28;20450;-58
2023/06/24 02:43:55;;;;;;;9.30;7.13;;;13.00;99.90;;;;;;5025510;28;20230;-59
2023/06/24 02:46:22;;;;;;;10.13;7.30;;;13.00;99.90;;;;;;5025393;28;20175;-59
2023/06/24 02:48:49;;;;;;;9.77;7.50;;;13.00;99.90;;;;;;5025776;28;20369;-59
2023/06/24 02:51:15;;;;;;;10.50;7.00;;;13.00;99.90;;;;;;5019311;28;20423;-58
2023/06/24 02:53:42;;;;;;;13.30;7.53;;;13.00;99.90;;;;;;5019625;28;20422;-58
2023/06/24 02:56:09;;;;;;;8.20;7.10;;;13.00;99.90;;;;;;5022159;28;20426;-59
2023/06/24 02:58:38;;;;;;;10.97;7.10;;;12.90;99.90;;;;;;5022542;28;20465;-58
2023/06/24 03:01:08;;;;;;;10.57;7.10;;;12.90;99.90;;;;;;5024299;28;20466;-59
2023/06/24 03:03:35;;;;;;;14.40;7.30;;;12.90;99.90;;;;;;5021339;28;20423;-59
2023/06/24 03:06:02;;;;;;;9.50;6.90;;;12.80;99.90;;;;;;5017344;28;20435;-58
2023/06/24 03:08:29;;;;;;;9.90;7.47;;;12.80;99.90;;;;;;5026684;28;20442;-57
2023/06/24 03:10:55;;;;;;;8.83;6.80;;;12.80;99.90;;;;;;5023327;28;20450;-60
2023/06/24 03:13:21;;;;;;;10.27;7.10;;;12.80;99.90;;;;;;5025041;28;21203;-59
2023/06/24 03:15:47;;;;;;;9.37;7.10;;;12.80;99.90;;;;;;5031144;28;20553;-59
2023/06/24 03:18:13;;;;;;;9.80;6.13;;;12.80;99.90;;;;;;5026950;28;20211;-60
2023/06/24 03:20:38;;;;;;;12.37;8.17;;;12.70;99.90;;;;;;5027293;28;20205;-59
2023/06/24 03:23:08;;;;;;;10.00;7.23;;;12.70;99.90;;;;;;5028475;28;20553;-58
2023/06/24 03:25:35;;;;;;;9.60;7.10;;;12.70;99.90;;;;;;5022302;28;20172;-59
2023/06/24 03:28:03;;;;;;;11.30;6.70;;;12.70;99.90;;;;;;5028337;28;20438;-59
2023/06/24 03:30:29;;;;;;;17.20;7.40;;;12.70;99.90;;;;;;5025531;28;20430;-59
2023/06/24 03:32:55;;;;;;;10.73;7.37;;;12.70;99.90;;;;;;5024121;28;20435;-58
2023/06/24 03:35:22;;;;;;;8.90;6.63;;;12.60;99.90;;;;;;5028270;28;20805;-59
2023/06/24 03:37:47;;;;;;;10.53;7.20;;;12.60;99.90;;;;;;5023603;28;20207;-58
2023/06/24 03:40:13;;;;;;;9.77;7.43;;;12.70;99.90;;;;;;5024678;28;20986;-59
2023/06/24 03:42:39;;;;;;;9.50;7.10;;;12.70;99.90;;;;;;5028434;28;20255;-59
2023/06/24 03:45:05;;;;;;;8.70;6.80;;;12.60;99.90;;;;;;5031217;28;20262;-59
2023/06/24 03:47:30;;;;;;;9.50;7.20;;;12.70;99.90;;;;;;5025893;28;20223;-58
2023/06/24 03:49:56;;;;;;;8.43;6.77;;;12.60;99.90;;;;;;5025584;28;20458;-59
2023/06/24 03:52:21;;;;;;;11.17;6.80;;;12.60;99.90;;;;;;5029138;28;20175;-60
2023/06/24 03:54:47;;;;;;;9.13;6.60;;;12.60;99.90;;;;;;5026099;28;20667;-60
2023/06/24 03:57:13;;;;;;;8.10;6.03;;;12.60;99.90;;;;;;5020877;28;20235;-58
2023/06/24 03:59:38;;;;;;;16.57;7.10;;;12.60;99.90;;;;;;5027641;28;20200;-59
2023/06/24 04:02:08;;;;;;;7.70;6.67;;;12.60;99.90;;;;;;5028213;28;20592;-59
2023/06/24 04:04:36;;;;;;;8.43;6.90;;;12.60;99.90;;;;;;5024393;28;20181;-58
2023/06/24 04:07:05;;;;;;;8.83;6.50;;;12.60;99.90;;;;;;5023182;28;20848;-58
2023/06/24 04:09:35;;;;;;;8.53;6.10;;;12.60;99.90;;;;;;5020615;28;20858;-58
2023/06/24 04:12:01;;;;;;;8.33;6.93;;;12.60;99.90;;;;;;5026191;28;20467;-59
2023/06/24 04:14:26;;;;;;;8.60;7.03;;;12.70;99.90;;;;;;5021926;28;20430;-61
2023/06/24 04:16:52;;;;;;;8.23;6.63;;;12.70;99.90;;;;;;5028600;28;20204;-58
2023/06/24 04:19:17;;;;;;;8.00;6.57;;;12.70;99.90;;;;;;5025469;28;20208;-60
2023/06/24 04:21:43;;;;;;;7.70;6.80;;;12.70;99.90;;;;;;5024996;28;20192;-59
2023/06/24 04:24:09;;;;;;;8.37;6.50;;;12.70;99.90;;;;;;5023146;28;20720;-60
2023/06/24 04:26:34;;;;;;;10.53;7.60;;;12.70;99.90;;;;;;5026349;28;20179;-59
2023/06/24 04:29:00;;;;;;;10.93;7.03;;;12.70;99.90;;;;;;5025160;28;20208;-60
2023/06/24 04:31:26;;;;;;;8.70;6.43;;;12.80;99.90;;;;;;5024830;28;20176;-60
2023/06/24 04:33:51;;;;;;;12.00;6.97;;;12.80;99.90;;;;;;5022798;28;20552;-59
2023/06/24 04:36:17;;;;;;;11.97;7.87;;;12.90;99.90;;;;;;5026315;28;20434;-59
2023/06/24 04:38:43;;;;;;;8.67;6.33;;;12.90;99.90;;;;;;5015238;28;20211;-60
2023/06/24 04:41:08;;;;;;;9.03;6.80;;;13.00;99.90;;;;;;5025463;28;20768;-59
2023/06/24 04:43:35;;;;;;;10.23;6.43;;;13.00;99.90;;;;;;5024690;28;20183;-59
2023/06/24 04:46:01;;;;;;;10.40;7.37;;;13.10;99.90;;;;;;5027144;28;21823;-59
2023/06/24 04:48:27;;;;;;;11.23;7.13;;;13.10;99.90;;;;;;5027747;28;20481;-61
2023/06/24 04:50:54;;;;;;;20.07;7.70;;;13.10;99.90;;;;;;5022591;28;20494;-59
2023/06/24 04:53:20;;;;;;;9.50;7.30;;;13.20;99.90;;;;;;5018081;28;20184;-58
2023/06/24 04:55:46;;;;;;;10.87;6.70;;;13.20;99.90;;;;;;5020309;28;20919;-58
2023/06/24 04:58:12;;;;;;;8.70;6.83;;;13.20;99.90;;;;;;5027113;28;20444;-59
2023/06/24 05:00:37;;;;;;;9.77;7.10;;;13.20;99.90;;;;;;5020775;28;20204;-59
2023/06/24 05:03:03;;;;;;;10.63;6.80;;;13.30;99.90;;;;;;5019681;28;20184;-58
2023/06/24 05:05:28;;;;;;;7.20;6.40;;;13.40;99.90;;;;;;5024510;28;20180;-60
2023/06/24 05:07:54;;;;;;;9.87;6.80;;;13.40;99.90;;;;;;5022715;28;20701;-60
2023/06/24 05:10:19;;;;;;;8.70;6.90;;;13.50;99.90;;;;;;5026521;28;20330;-58
2023/06/24 05:12:45;;;;;;;8.43;6.87;;;13.50;99.90;;;;;;5022572;28;20211;-59
2023/06/24 05:15:11;;;;;;;9.87;6.60;;;13.60;99.90;;;;;;5022605;28;20191;-59
2023/06/24 05:17:36;;;;;;;9.60;6.60;;;13.60;99.90;;;;;;5020254;28;20204;-59
2023/06/24 05:20:03;;;;;;;14.93;6.27;;;13.60;99.90;;;;;;5023663;28;20211;-58
2023/06/24 05:22:28;;;;;;;7.27;6.40;;;13.70;99.90;;;;;;5028078;28;20292;-59
2023/06/24 05:24:54;;;;;;;9.80;7.17;;;13.70;99.90;;;;;;5028003;28;20478;-58
2023/06/24 05:27:20;;;;;;;9.93;7.37;;;13.80;99.90;;;;;;5021363;28;20287;-58
2023/06/24 05:29:46;;;;;;;9.23;6.67;;;13.80;99.90;;;;;;5021075;28;20611;-58
2023/06/24 05:32:11;;;;;;;8.30;6.13;;;13.90;99.90;;;;;;5028209;28;20199;-60
2023/06/24 05:34:37;;;;;;;11.90;6.23;;;13.90;99.90;;;;;;5022568;28;20192;-60
2023/06/24 05:37:03;;;;;;;8.53;6.60;;;14.00;99.90;;;;;;5025447;28;20223;-60
2023/06/24 05:39:28;;;;;;;11.93;7.80;;;14.00;99.90;;;;;;5025587;28;20672;-59
2023/06/24 05:41:54;;;;;;;11.03;6.83;;;14.10;99.90;;;;;;5023370;28;20564;-60
2023/06/24 05:44:20;;;;;;;8.10;6.47;;;14.20;99.90;;;;;;5027196;28;20187;-60
2023/06/24 05:46:46;;;;;;;9.20;6.43;;;14.30;99.90;;;;;;5026221;28;20180;-58
2023/06/24 05:49:11;;;;;;;9.17;6.47;;;14.30;99.90;;;;;;5019801;28;20860;-58
2023/06/24 05:51:37;;;;;;;8.77;6.50;;;14.40;99.90;;;;;;5020137;28;20180;-58
2023/06/24 05:54:03;;;;;;;11.33;6.60;;;14.50;99.90;;;;;;5025320;28;20572;-56
2023/06/24 05:56:29;;;;;;;8.57;6.70;;;14.70;99.90;;;;;;5019238;28;20532;-57
2023/06/24 05:58:54;;;;;;;7.70;6.60;;;14.80;99.90;;;;;;5021455;28;20188;-58
2023/06/24 06:01:20;;;;;;;12.93;7.37;;;14.90;99.90;;;;;;5024440;28;20180;-59
2023/06/24 06:03:46;;;;;;;8.90;6.20;;;15.00;99.90;;;;;;5025302;28;20183;-58
2023/06/24 06:06:11;;;;;;;8.30;6.50;;;15.10;99.90;;;;;;5021788;28;20176;-58
2023/06/24 06:08:37;;;;;;;9.90;7.10;;;15.10;99.90;;;;;;5024182;28;20200;-60
2023/06/24 06:11:02;;;;;;;10.70;6.97;;;15.20;99.90;;;;;;5022049;28;20180;-59
2023/06/24 06:13:29;;;;;;;9.23;6.10;;;15.20;99.90;;;;;;5023244;28;20558;-60
2023/06/24 06:15:55;;;;;;;8.20;6.20;;;15.40;99.90;;;;;;5024750;28;20692;-59
2023/06/24 06:18:21;;;;;;;13.53;7.20;;;15.50;99.90;;;;;;5024423;28;20489;-59
2023/06/24 06:20:46;;;;;;;8.37;5.97;;;15.50;99.90;;;;;;5020428;28;20530;-58
2023/06/24 06:23:12;;;;;;;8.87;6.30;;;15.60;99.90;;;;;;5022085;28;20183;-59
2023/06/24 06:25:38;;;;;;;7.97;6.10;;;15.70;99.90;;;;;;5008386;28;20182;-61
2023/06/24 06:28:04;;;;;;;7.90;6.33;;;15.80;99.90;;;;;;5023650;28;20747;-58
2023/06/24 06:30:30;;;;;;;8.60;6.23;;;15.90;99.90;;;;;;5018332;28;20478;-59
2023/06/24 06:32:55;;;;;;;7.23;6.00;;;16.00;99.90;;;;;;5016720;28;20477;-61
2023/06/24 06:35:21;;;;;;;10.60;6.40;;;16.10;99.90;;;;;;5020838;28;20470;-60
2023/06/24 06:37:51;;;;;;;7.33;6.10;;;16.20;99.90;;;;;;5021102;28;20239;-61
2023/06/24 06:40:18;;;;;;;11.30;6.17;;;16.40;99.90;;;;;;5013296;28;20207;-63
2023/06/24 06:42:43;;;;;;;8.30;6.10;;;16.50;97.90;;;;;;5018919;28;20423;-58
2023/06/24 06:45:09;;;;;;;13.23;6.10;;;16.60;95.90;;;;;;5014897;28;20995;-59
2023/06/24 06:47:35;;;;;;;9.17;6.10;;;16.70;93.20;;;;;;5020799;28;20210;-59
2023/06/24 06:50:01;;;;;;;11.27;6.20;;;16.70;92.50;;;;;;5019667;28;20426;-59
2023/06/24 06:52:28;;;;;;;7.23;5.63;;;16.80;93.10;;;;;;5010350;28;20188;-61
2023/06/24 06:54:54;;;;;;;7.27;5.73;;;16.80;93.70;;;;;;5019756;28;20188;-61
2023/06/24 06:57:19;;;;;;;8.30;5.50;;;16.90;94.00;;;;;;5015973;28;20489;-60
2023/06/24 06:59:45;;;;;;;6.83;5.40;;;17.10;94.70;;;;;;4998328;28;20210;-62
2023/06/24 07:02:10;;;;;;;8.93;5.27;;;17.20;93.80;;;;;;5013905;28;20229;-62
2023/06/24 07:04:36;;;;;;;8.93;5.60;;;17.40;88.70;;;;;;5010325;28;20179;-61
2023/06/24 07:07:02;;;;;;;9.00;5.43;;;17.50;84.40;;;;;;5013661;28;20196;-59
2023/06/24 07:09:28;;;;;;;7.57;5.60;;;17.50;83.80;;;;;;5017745;28;20570;-61
2023/06/24 07:11:53;;;;;;;9.00;5.57;;;17.70;82.10;;;;;;5016408;28;20430;-60
2023/06/24 07:14:19;;;;;;;8.80;5.90;;;17.80;81.40;;;;;;5018137;28;20195;-62
2023/06/24 07:16:44;;;;;;;10.93;4.73;;;17.90;77.40;;;;;;5018438;28;20185;-62
2023/06/24 07:19:10;;;;;;;9.13;5.67;;;18.00;76.50;;;;;;5026040;28;20182;-62
2023/06/24 07:21:36;;;;;;;7.00;4.93;;;18.00;75.50;;;;;;5017950;28;20606;-63
2023/06/24 07:24:01;;;;;;;7.63;4.70;;;18.10;72.90;;;;;;5024320;28;20641;-61
2023/06/24 07:26:28;;;;;;;6.37;5.33;;;18.20;72.10;;;;;;5023564;28;20266;-60
2023/06/24 07:28:56;;;;;;;8.00;5.17;;;18.30;71.80;;;;;;5011392;28;20180;-63
2023/06/24 07:31:21;;;;;;;5.53;4.30;;;18.40;69.80;;;;;;5018441;28;20439;-64
2023/06/24 07:33:47;;;;;;;5.20;4.70;;;18.50;71.80;;;;;;5014895;28;21177;-59
2023/06/24 07:36:13;;;;;;;10.37;4.70;;;18.70;72.00;;;;;;5023290;28;20211;-61
2023/06/24 07:38:39;;;;;;;5.50;4.57;;;18.80;68.10;;;;;;5014951;28;20216;-63
2023/06/24 07:41:04;;;;;;;7.00;4.47;;;18.90;66.70;;;;;;5016794;28;20458;-67
2023/06/24 07:43:30;;;;;;;5.77;5.00;;;19.00;65.30;;;;;;5018804;28;20176;-64
2023/06/24 07:45:56;;;;;;;5.73;4.37;;;19.10;61.80;;;;;;5013343;28;21088;-67
2023/06/24 07:48:21;;;;;;;8.40;4.97;;;19.10;61.60;;;;;;5017294;28;20227;-64
2023/06/24 07:50:47;;;;;;;5.30;4.10;;;19.10;62.40;;;;;;5020835;28;20180;-63
2023/06/24 07:53:13;;;;;;;6.00;4.80;;;19.30;63.60;;;;;;5026915;28;20407;-64
2023/06/24 07:55:38;;;;;;;5.60;4.20;;;19.40;63.90;;;;;;5019547;28;20974;-67
2023/06/24 07:58:04;;;;;;;6.80;4.73;;;19.60;63.40;;;;;;5026193;28;20215;-64
2023/06/24 08:00:30;;;;;;;5.37;3.90;;;19.70;62.60;;;;;;5025186;28;20693;-64
2023/06/24 08:02:57;;;;;;;6.40;4.97;;;19.90;60.80;;;;;;5020613;28;20443;-64
2023/06/24 08:05:23;;;;;;;6.90;4.40;;;20.00;58.90;;;;;;5021713;28;20183;-65
2023/06/24 08:07:50;;;;;;;6.53;4.03;;;20.10;58.10;;;;;;5023538;28;20458;-62
2023/06/24 08:10:16;;;;;;;5.00;4.40;;;20.20;58.00;;;;;;5023291;28;20195;-65
2023/06/24 08:12:41;;;;;;;6.17;4.27;;;20.20;57.10;;;;;;5022279;28;20442;-64
2023/06/24 08:15:08;;;;;;;9.87;4.73;;;20.30;57.70;;;;;;5026520;28;20238;-66
2023/06/24 08:17:33;;;;;;;7.30;4.60;;;20.40;57.80;;;;;;5024909;28;20218;-68
2023/06/24 08:20:00;;;;;;;10.87;5.50;;;20.50;58.20;;;;;;5025441;28;20859;-64
2023/06/24 08:22:26;;;;;;;5.00;3.83;;;20.60;57.90;;;;;;5025523;28;20214;-65
2023/06/24 08:24:52;;;;;;;4.30;3.90;;;20.70;57.80;;;;;;5023403;28;21140;-67
2023/06/24 08:27:17;;;;;;;7.43;5.30;;;20.80;57.80;;;;;;5024771;28;20234;-64
2023/06/24 08:29:43;;;;;;;7.00;4.23;;;20.90;58.40;;;;;;5021553;28;20860;-65
2023/06/24 08:32:09;;;;;;;4.87;4.30;;;21.00;59.00;;;;;;5025282;28;20195;-67
2023/06/24 08:34:34;;;;;;;5.83;4.70;;;21.10;56.90;;;;;;5023962;28;20544;-62
2023/06/24 08:37:00;;;;;;;5.40;4.60;;;21.10;56.00;;;;;;5018361;28;20459;-65
2023/06/24 08:39:26;;;;;;;11.03;4.97;;;21.10;56.30;;;;;;5023880;28;20207;-61
2023/06/24 08:41:52;;;;;;;9.40;4.90;;;21.00;57.40;;;;;;5019523;28;20188;-64
2023/06/24 08:44:18;;;;;;;11.40;4.77;;;21.10;57.50;;;;;;5026771;28;20572;-64
2023/06/24 08:46:43;;;;;;;7.63;5.00;;;21.10;57.50;;;;;;5023896;28;20176;-64
2023/06/24 08:49:24;;;;;;;7.83;5.07;;;21.00;57.50;;;;;;5023520;28;20175;-63
2023/06/24 08:52:11;;;;;;;5.70;4.50;;;21.00;57.40;;;;;;5025762;28;20218;-64
2023/06/24 08:54:40;;;;;;;4.97;4.47;;;21.00;57.60;;;;;;5036004;28;20480;-66
2023/06/24 08:57:07;;;;;;;7.13;5.10;;;21.00;57.50;;;;;;5024131;28;20979;-69
2023/06/24 08:59:38;;;;;;;9.27;4.90;;;21.00;57.40;;;;;;5024712;28;20549;-63
2023/06/24 09:02:04;;;;;;;8.10;5.40;;;21.10;58.00;;;;;;5020933;28;20531;-69
2023/06/24 09:04:29;;;;;;;5.93;4.77;;;21.30;57.90;;;;;;5021586;28;20636;-66
2023/06/24 09:06:56;;;;;;;7.17;4.87;;;21.40;57.50;;;;;;5016637;28;20204;-65
2023/06/24 09:09:22;;;;;;;5.10;4.60;;;21.60;57.80;;;;;;5016026;28;20266;-65
2023/06/24 09:12:01;;;;;;;4.97;4.47;;;21.70;56.80;;;;;;5017464;28;21147;-63
2023/06/24 09:14:29;;;;;;;11.23;5.60;;;21.90;56.50;;;;;;5018366;28;20449;-63
2023/06/24 09:16:56;;;;;;;5.90;5.00;;;21.90;55.40;;;;;;5025539;28;20943;-66
2023/06/24 09:19:32;;;;;;;4.97;4.47;;;21.90;55.60;;;;;;5021754;28;20478;-64
2023/06/24 09:22:05;;;;;;;5.00;4.40;;;22.00;55.90;;;;;;5021167;28;20512;-66
2023/06/24 09:24:32;;;;;;;9.10;4.80;;;22.00;55.70;;;;;;5015949;28;21121;-63
2023/06/24 09:26:58;;;;;;;5.70;4.33;;;22.00;55.10;;;;;;5020307;28;20512;-66
2023/06/24 09:29:28;;;;;;;4.87;4.30;;;22.00;55.10;;;;;;5025192;28;20450;-66
2023/06/24 09:31:55;;;;;;;4.30;3.90;;;22.10;55.20;;;;;;5019853;28;20188;-66
2023/06/24 09:34:21;;;;;;;8.03;4.67;;;22.20;54.60;;;;;;5017339;28;20445;-64
2023/06/24 09:36:54;;;;;;;5.97;4.97;;;22.40;54.80;;;;;;5022457;28;20422;-64
2023/06/24 09:39:30;;;;;;;7.53;4.80;;;22.50;54.20;;;;;;5021669;28;20258;-64
2023/06/24 09:42:00;;;;;;;6.60;4.37;;;22.50;53.50;;;;;;5021732;28;22252;-66
2023/06/24 09:44:27;;;;;;;6.67;4.30;;;22.40;53.40;;;;;;5025129;28;20438;-65
2023/06/24 09:46:54;;;;;;;7.40;4.20;;;22.50;52.60;;;;;;5022226;28;20462;-64
2023/06/24 09:49:19;;;;;;;5.53;4.20;;;22.70;53.00;;;;;;5022997;28;20442;-67
2023/06/24 09:51:47;;;;;;;6.33;4.20;;;22.80;52.10;;;;;;5022640;28;20446;-65
2023/06/24 09:54:15;;;;;;;4.50;3.80;;;22.90;51.30;;;;;;5017655;28;20195;-64
2023/06/24 09:56:45;;;;;;;4.40;3.43;;;23.10;51.00;;;;;;5020293;28;20488;-63
2023/06/24 09:59:12;;;;;;;5.83;4.13;;;23.20;50.00;;;;;;5023322;28;20431;-62
2023/06/24 10:01:43;;;;;;;5.50;4.10;;;23.30;49.10;;;;;;5020899;28;20750;-64
2023/06/24 10:04:16;;;;;;;5.27;4.33;;;23.30;49.10;;;;;;5021162;28;20972;-64
2023/06/24 10:06:41;;;;;;;6.40;4.50;;;23.50;50.00;;;;;;5021526;28;20564;-65
2023/06/24 10:09:08;;;;;;;6.30;4.70;;;23.60;50.00;;;;;;5023337;28;20506;-65
2023/06/24 10:11:34;;;;;;;5.30;4.37;;;23.70;49.60;;;;;;5020693;28;20184;-65
2023/06/24 10:14:00;;;;;;;5.10;4.60;;;23.80;51.00;;;;;;5013359;28;20439;-66
2023/06/24 10:16:26;;;;;;;6.13;4.73;;;23.90;52.00;;;;;;5008500;28;20479;-60
2023/06/24 10:18:51;;;;;;;7.63;4.33;;;23.80;51.90;;;;;;5015049;28;20450;-64
2023/06/24 10:21:17;;;;;;;9.27;4.30;;;23.80;51.20;;;;;;5010843;28;20204;-64
2023/06/24 10:23:55;;;;;;;6.97;4.27;;;23.90;50.50;;;;;;5009891;28;20675;-66
2023/06/24 10:26:28;;;;;;;7.57;4.10;;;24.10;49.40;;;;;;5024378;28;20186;-67
2023/06/24 10:29:17;;;;;;;6.47;4.20;;;24.20;48.00;;;;;;5017704;28;20438;-66
2023/06/24 10:31:48;;;;;;;6.77;4.00;;;24.30;48.40;;;;;;5022539;28;20434;-69
2023/06/24 10:34:23;;;;;;;6.70;3.97;;;24.40;48.80;;;;;;5025040;28;20429;-65
2023/06/24 10:37:23;;;;;;;13.93;5.43;;;24.50;49.30;;;;;;5021651;28;20427;-69
2023/06/24 10:39:53;;;;;;;7.00;4.60;;;24.60;47.70;;;;;;5013940;28;20474;-68
2023/06/24 10:42:38;;;;;;;5.10;4.50;;;24.80;49.30;;;;;;5020866;28;20937;-68
2023/06/24 10:45:09;;;;;;;5.37;3.83;;;24.90;49.30;;;;;;5022074;28;20430;-65
2023/06/24 10:47:38;;;;;;;4.70;4.13;;;24.90;47.20;;;;;;5026204;28;20434;-65
2023/06/24 10:50:05;;;;;;;6.53;4.43;;;24.90;47.10;;;;;;5026912;28;20427;-65
2023/06/24 10:52:31;;;;;;;5.80;4.43;;;24.90;45.80;;;;;;5022901;28;20791;-65
2023/06/24 10:54:58;;;;;;;5.17;4.43;;;24.90;45.40;;;;;;5023060;28;20985;-69
2023/06/24 10:57:25;;;;;;;6.57;4.00;;;25.00;45.70;;;;;;5023813;28;20457;-65
2023/06/24 10:59:52;;;;;;;4.53;4.13;;;25.00;46.50;;;;;;5024601;28;20461;-66
2023/06/24 11:02:20;;;;;;;3.73;3.30;;;25.10;46.60;;;;;;5020260;28;20422;-66
2023/06/24 11:04:47;;;;;;;9.10;4.20;;;25.20;45.50;;;;;;5017134;28;20461;-67
2023/06/24 11:07:13;;;;;;;4.43;4.03;;;25.30;46.20;;;;;;5026353;28;21007;-68
2023/06/24 11:09:41;;;;;;;5.37;3.80;;;25.40;47.20;;;;;;5022218;28;20518;-68
2023/06/24 11:12:09;;;;;;;5.07;3.50;;;25.50;45.60;;;;;;5033024;28;20430;-65
2023/06/24 11:14:36;;;;;;;4.67;3.83;;;25.60;45.30;;;;;;5037491;28;20490;-67
2023/06/24 11:17:03;;;;;;;6.13;4.43;;;25.60;44.70;;;;;;5024732;28;20465;-64
2023/06/24 11:19:31;;;;;;;5.07;3.83;;;25.70;44.80;;;;;;5020350;28;20461;-67
2023/06/24 11:22:00;;;;;;;6.00;3.83;;;25.80;45.10;;;;;;5026879;28;20444;-65
2023/06/24 11:24:30;;;;;;;6.90;3.80;;;25.90;45.60;;;;;;5022817;28;20453;-63
2023/06/24 11:26:56;;;;;;;4.60;3.70;;;26.00;45.20;;;;;;5026281;28;20481;-66
2023/06/24 11:29:30;;;;;;;4.03;3.40;;;26.00;43.50;;;;;;5029644;28;20487;-65
2023/06/24 11:31:56;;;;;;;4.93;3.90;;;26.10;43.70;;;;;;5025821;28;20469;-68
2023/06/24 11:34:21;;;;;;;5.97;3.97;;;26.10;41.80;;;;;;5023930;28;20692;-67
2023/06/24 11:36:48;;;;;;;4.53;3.47;;;26.20;43.60;;;;;;5019358;28;20176;-64
2023/06/24 11:39:27;;;;;;;5.50;3.67;;;26.30;44.60;;;;;;5023923;28;20195;-66
2023/06/24 11:41:57;;;;;;;6.40;3.50;;;26.40;45.20;;;;;;5028512;28;21061;-63
2023/06/24 11:44:26;;;;;;;4.40;4.00;;;26.50;45.80;;;;;;5026078;28;20490;-65
2023/06/24 11:46:52;;;;;;;5.03;3.40;;;26.70;46.20;;;;;;5014687;28;20449;-63
2023/06/24 11:49:18;;;;;;;4.23;3.50;;;26.70;44.90;;;;;;5023112;28;21104;-65
2023/06/24 11:51:49;;;;;;;5.47;3.97;;;26.70;45.20;;;;;;5013547;28;20442;-66
2023/06/24 11:54:16;;;;;;;6.50;4.53;;;26.60;44.00;;;;;;5023836;28;20437;-64
2023/06/24 11:56:43;;;;;;;5.03;3.90;;;26.60;44.30;;;;;;5024804;28;20430;-63
2023/06/24 11:59:19;;;;;;;4.57;4.00;;;26.70;45.00;;;;;;5019760;28;20441;-60
2023/06/24 12:01:56;;;;;;;5.30;4.07;;;26.80;44.70;;;;;;5012410;28;21158;-62
2023/06/24 12:04:27;;;;;;;3.53;3.23;;;26.80;44.70;;;;;;5016998;28;20464;-62
2023/06/24 12:06:52;;;;;;;5.23;3.53;;;26.90;43.50;;;;;;5013757;28;20476;-66
2023/06/24 12:09:18;;;;;;;5.20;3.40;;;27.00;43.70;;;;;;5017108;28;20426;-64
2023/06/24 12:11:44;;;;;;;8.27;3.90;;;27.00;43.50;;;;;;5024454;28;20171;-63
2023/06/24 12:14:10;;;;;;;4.80;3.80;;;27.10;43.20;;;;;;5017200;28;20232;-68
2023/06/24 12:16:36;;;;;;;9.20;3.70;;;27.10;42.60;;;;;;5021405;28;20176;-64
2023/06/24 12:19:02;;;;;;;4.50;3.40;;;27.10;42.10;;;;;;5016519;28;20177;-60
2023/06/24 12:21:28;;;;;;;4.50;3.37;;;27.10;42.30;;;;;;5025773;28;20261;-63
2023/06/24 12:23:53;;;;;;;9.70;4.13;;;27.10;41.80;;;;;;5002156;28;20179;-68
2023/06/24 12:26:19;;;;;;;4.33;3.73;;;27.20;41.60;;;;;;5018016;28;20176;-66
2023/06/24 12:28:45;;;;;;;4.17;3.53;;;27.20;40.20;;;;;;5013070;28;20265;-64
2023/06/24 12:31:11;;;;;;;6.30;3.70;;;27.10;40.00;;;;;;5026115;28;20183;-66
2023/06/24 12:33:37;;;;;;;4.60;3.93;;;27.20;41.20;;;;;;5027091;28;20546;-63
2023/06/24 12:36:03;;;;;;;4.30;3.37;;;27.20;39.90;;;;;;5021557;28;20237;-64
2023/06/24 12:38:28;;;;;;;10.50;3.40;;;27.30;41.00;;;;;;5022106;28;20578;-66
2023/06/24 12:40:54;;;;;;;4.40;3.70;;;27.50;41.20;;;;;;5026846;28;20338;-67
2023/06/24 12:43:20;;;;;;;4.60;3.87;;;27.60;40.00;;;;;;5030898;28;20175;-65
2023/06/24 12:45:45;;;;;;;4.20;3.80;;;27.70;39.10;;;;;;5029385;28;20200;-64